首页
METAR-TAF:

METAR-TAF

机场 :

东京国际机场, 日本

東京國際機場

纬度: 35-33N, 经度: 139-47E, 海拔: 5米

当前天气观测

该预报发布于24分钟前的03:00 UTC
风速5节,风向东转东北
温度 8°C
湿度 71%
气压 1016 hPa
能见度10公里或以上
少量云层高于2000英尺
多云层高于5000英尺

METAR: RJTT 200300Z 06005KT 9999 FEW020 BKN050 08/03 Q1016 NOSIG RMK 1CU020 7SC050 A3003

时间: 12:24 (03:24 UTC)

预报

该预报发布于4小时和17分钟前的23:07 UTC
预报有效从20日的 00点(UTC)到 21日的 06点(UTC)
风速8节,风向北转东北
能见度10公里或以上
少量云层高于1000英尺
多云层高于3000英尺
成为
从 20日的 04点(UTC)到 20日的 06点(UTC)
风速6节,风向
成为
从 20日的 09点(UTC)到 20日的 11点(UTC)
风速12节,风向

TAF: RJTT 192307Z 2000/2106 03008KT 9999 FEW010 BKN030 BECMG 2004/2006 08006KT BECMG 2009/2011 36012KT

超过4000个机场的气象观测和天气预报(METAR&TAF报告)。

可查询的气象台以黄色和红色小点在地图上表示。

将鼠标移到小点上方,可查看气象台名称。

然后点击查看天气观测和预报。

如需切换地图:点击带黑十字的绿色按钮放大地图;点击带横线的绿色按钮缩小地图;或者点击绿色箭头查看邻近地区的地图。


METAR-TAF: